createdAt,value
2023-05-19T00:01:15.272Z,16.20
2023-05-19T00:03:57.537Z,16.20
2023-05-19T00:06:26.863Z,16.10
2023-05-19T00:08:58.713Z,16.10
2023-05-19T00:11:26.959Z,16.10
2023-05-19T00:13:54.846Z,16.00
2023-05-19T00:16:22.932Z,16.00
2023-05-19T00:23:44.101Z,16.00
2023-05-19T00:26:11.047Z,15.90
2023-05-19T00:28:37.779Z,15.90
2023-05-19T00:38:35.648Z,15.80
2023-05-19T00:41:03.705Z,15.80
2023-05-19T00:43:30.974Z,15.70
2023-05-19T00:45:58.413Z,15.70
2023-05-19T00:48:26.370Z,15.70
2023-05-19T00:50:56.025Z,15.60
2023-05-19T00:53:24.542Z,15.60
2023-05-19T00:55:51.297Z,15.60
2023-05-19T00:58:19.087Z,15.60
2023-05-19T01:00:45.973Z,15.50
2023-05-19T01:03:13.046Z,15.60
2023-05-19T01:05:47.653Z,15.50
2023-05-19T01:08:14.351Z,15.50
2023-05-19T01:10:41.176Z,15.50
2023-05-19T01:13:09.459Z,15.50
2023-05-19T01:16:07.567Z,15.50
2023-05-19T01:18:43.326Z,15.40
2023-05-19T01:21:26.182Z,15.40
2023-05-19T01:24:09.112Z,15.40
2023-05-19T01:26:56.442Z,15.30
2023-05-19T01:29:41.287Z,15.30
2023-05-19T01:32:10.651Z,15.30
2023-05-19T01:34:42.392Z,15.30
2023-05-19T01:37:10.148Z,15.30
2023-05-19T01:39:37.846Z,15.20
2023-05-19T01:42:05.931Z,15.20
2023-05-19T01:44:33.889Z,15.20
2023-05-19T01:47:01.468Z,15.20
2023-05-19T01:49:28.567Z,15.20
2023-05-19T01:51:56.069Z,15.20
2023-05-19T01:54:23.097Z,15.10
2023-05-19T01:56:58.675Z,15.10
2023-05-19T01:59:59.516Z,15.10
2023-05-19T02:02:41.066Z,15.10
2023-05-19T02:05:18.533Z,15.10
2023-05-19T02:07:56.735Z,15.10
2023-05-19T02:10:31.094Z,15.10
2023-05-19T02:13:01.201Z,15.00
2023-05-19T02:15:35.102Z,15.00
2023-05-19T02:18:04.694Z,15.00
2023-05-19T02:20:32.073Z,15.00
2023-05-19T02:22:58.948Z,15.00
2023-05-19T02:25:25.732Z,14.90
2023-05-19T02:27:52.606Z,14.90
2023-05-19T02:30:19.391Z,14.90
2023-05-19T02:32:46.818Z,14.90
2023-05-19T02:35:14.487Z,14.90
2023-05-19T02:37:41.252Z,14.90
2023-05-19T02:40:09.445Z,14.90
2023-05-19T02:42:36.366Z,14.90
2023-05-19T02:45:04.570Z,14.80
2023-05-19T02:47:31.316Z,14.80
2023-05-19T02:49:59.055Z,14.80
2023-05-19T02:52:25.860Z,14.80
2023-05-19T02:54:52.608Z,14.80
2023-05-19T02:57:19.434Z,14.80
2023-05-19T02:59:46.245Z,14.80
2023-05-19T03:02:13.176Z,14.80
2023-05-19T03:04:42.158Z,14.70
2023-05-19T03:07:10.257Z,14.70
2023-05-19T03:09:37.723Z,14.70
2023-05-19T03:12:06.561Z,14.70
2023-05-19T03:14:35.047Z,14.70
2023-05-19T03:17:01.814Z,14.70
2023-05-19T03:19:29.122Z,14.70
2023-05-19T03:21:56.502Z,14.60
2023-05-19T03:24:24.464Z,14.60
2023-05-19T03:26:51.673Z,14.60
2023-05-19T03:29:18.470Z,14.60
2023-05-19T03:31:45.519Z,14.60
2023-05-19T03:34:12.234Z,14.60
2023-05-19T03:46:28.629Z,14.60
2023-05-19T03:48:55.558Z,14.50
2023-05-19T03:51:23.485Z,14.50
2023-05-19T03:53:50.192Z,14.50
2023-05-19T03:56:18.212Z,14.50
2023-05-19T03:58:47.967Z,14.40
2023-05-19T04:01:14.667Z,14.40
2023-05-19T04:03:41.732Z,14.40
2023-05-19T04:06:08.869Z,14.40
2023-05-19T04:08:35.915Z,14.40
2023-05-19T04:11:02.614Z,14.40
2023-05-19T04:13:31.599Z,14.40
2023-05-19T04:15:58.466Z,14.40
2023-05-19T04:18:28.206Z,14.40
2023-05-19T04:20:55.812Z,14.40
2023-05-19T04:23:22.534Z,14.40
2023-05-19T04:25:50.465Z,14.30
2023-05-19T04:28:18.041Z,14.30
2023-05-19T04:30:46.680Z,14.30
2023-05-19T04:33:13.766Z,14.30
2023-05-19T04:35:40.802Z,14.30
2023-05-19T04:38:07.751Z,14.30
2023-05-19T04:40:34.826Z,14.30
2023-05-19T04:43:02.221Z,14.30
2023-05-19T04:45:29.249Z,14.30
2023-05-19T04:47:58.197Z,14.30
2023-05-19T04:50:25.320Z,14.30
2023-05-19T04:52:52.155Z,14.40
2023-05-19T04:55:18.987Z,14.30
2023-05-19T04:57:45.728Z,14.30
2023-05-19T05:00:14.405Z,14.30
2023-05-19T05:02:43.068Z,14.40
2023-05-19T05:05:10.209Z,14.40
2023-05-19T05:07:37.008Z,14.40
2023-05-19T05:10:04.295Z,14.40
2023-05-19T05:12:32.164Z,14.40
2023-05-19T05:14:59.495Z,14.40
2023-05-19T05:17:27.147Z,14.40
2023-05-19T05:19:54.498Z,14.40
2023-05-19T05:22:21.465Z,14.40
2023-05-19T05:24:49.079Z,14.40
2023-05-19T05:27:16.917Z,14.40
2023-05-19T05:29:43.749Z,14.40
2023-05-19T05:32:10.574Z,14.50
2023-05-19T05:34:38.162Z,14.50
2023-05-19T07:25:33.227Z,14.50
2023-05-19T07:28:00.016Z,15.60
2023-05-19T08:22:03.650Z,15.70
2023-05-19T08:24:30.538Z,17.20
2023-05-19T08:26:57.428Z,17.20
2023-05-19T08:29:24.267Z,17.30
2023-05-19T08:31:53.085Z,17.30
2023-05-19T09:41:41.963Z,17.30
2023-05-19T09:44:23.023Z,18.00
2023-05-19T09:46:53.737Z,18.10
2023-05-19T09:49:25.342Z,18.10
2023-05-19T09:52:00.412Z,18.10
2023-05-19T09:54:28.457Z,18.10
2023-05-19T09:56:59.405Z,18.10
2023-05-19T09:59:28.513Z,18.20
2023-05-19T10:01:59.357Z,18.20
2023-05-19T10:04:30.364Z,18.20
2023-05-19T10:07:05.424Z,18.30
2023-05-19T10:09:33.703Z,18.30
2023-05-19T10:12:00.693Z,18.30
2023-05-19T10:14:29.552Z,18.40
2023-05-19T10:16:59.836Z,18.40
2023-05-19T10:19:28.701Z,18.50
2023-05-19T10:21:56.746Z,18.40
2023-05-19T10:24:23.543Z,18.50
2023-05-19T10:27:01.283Z,18.50
2023-05-19T10:29:31.332Z,18.50
2023-05-19T10:59:56.594Z,18.50
2023-05-19T11:02:43.895Z,18.80
2023-05-19T11:05:14.579Z,18.90
2023-05-19T11:07:43.584Z,18.90
2023-05-19T11:10:11.012Z,18.90
2023-05-19T11:12:43.045Z,18.90
2023-05-19T11:15:15.008Z,18.90
2023-05-19T11:17:45.264Z,19.00
2023-05-19T11:20:25.676Z,19.00
2023-05-19T11:23:17.824Z,19.00
2023-05-19T11:25:53.764Z,19.00
2023-05-19T11:53:19.863Z,19.10
2023-05-19T11:55:48.106Z,19.30
2023-05-19T11:58:15.792Z,19.30
2023-05-19T12:00:45.964Z,19.40
2023-05-19T12:03:13.355Z,19.40
2023-05-19T12:05:45.477Z,19.40
2023-05-19T12:08:12.973Z,19.40
2023-05-19T12:10:40.350Z,19.40
2023-05-19T12:13:10.690Z,19.50
2023-05-19T12:15:38.697Z,19.50
2023-05-19T12:18:05.741Z,19.50
2023-05-19T12:20:35.322Z,19.60
2023-05-19T12:23:03.114Z,19.60
2023-05-19T12:25:31.467Z,19.60
2023-05-19T12:27:59.342Z,19.60
2023-05-19T12:32:58.172Z,19.70
2023-05-19T12:35:33.607Z,19.70
2023-05-19T12:38:07.159Z,19.70
2023-05-19T12:40:35.406Z,19.70
2023-05-19T12:43:03.398Z,19.70
2023-05-19T12:45:34.854Z,19.70
2023-05-19T14:46:53.532Z,19.80
2023-05-19T14:49:20.276Z,20.50
2023-05-19T14:51:47.029Z,20.50
2023-05-19T14:54:13.805Z,20.40
2023-05-19T14:56:40.649Z,20.50
2023-05-19T14:59:07.553Z,20.40
2023-05-19T15:01:34.331Z,20.40
2023-05-19T15:04:01.148Z,20.50
2023-05-19T15:06:27.914Z,20.50
2023-05-19T15:08:54.637Z,20.50
2023-05-19T15:11:22.462Z,20.50
2023-05-19T15:13:49.296Z,20.50
2023-05-19T15:16:17.468Z,20.50
2023-05-19T15:18:45.181Z,20.50
2023-05-19T15:21:13.246Z,20.50
2023-05-19T15:23:40.019Z,20.50
2023-05-19T15:26:07.124Z,20.50
2023-05-19T15:28:34.216Z,20.50
2023-05-19T15:31:01.095Z,20.50
2023-05-19T15:33:27.886Z,20.50
2023-05-19T15:35:54.680Z,20.50
2023-05-19T15:38:21.446Z,20.50
2023-05-19T15:40:49.413Z,20.50
2023-05-19T15:43:17.309Z,20.50
2023-05-19T15:45:44.056Z,20.50
2023-05-19T15:48:11.516Z,20.50
2023-05-19T15:50:38.561Z,20.50
2023-05-19T15:53:07.669Z,20.50
2023-05-19T15:55:34.498Z,20.50
2023-05-19T15:58:01.197Z,20.60
2023-05-19T16:00:27.897Z,20.50
2023-05-19T16:02:54.742Z,20.60
2023-05-19T16:05:21.565Z,20.50
2023-05-19T16:07:48.322Z,20.60
2023-05-19T16:10:15.306Z,20.60
2023-05-19T16:12:41.998Z,20.60
2023-05-19T16:15:09.318Z,20.60
2023-05-19T16:17:36.082Z,20.60
2023-05-19T16:20:03.096Z,20.60
2023-05-19T16:22:30.563Z,20.60
2023-05-19T16:24:57.406Z,20.60
2023-05-19T16:27:24.184Z,20.60
2023-05-19T16:29:53.457Z,20.60
2023-05-19T16:32:20.431Z,20.60
2023-05-19T16:34:47.275Z,20.60
2023-05-19T16:37:13.984Z,20.60
2023-05-19T16:39:41.471Z,20.60
2023-05-19T16:42:08.286Z,20.60
2023-05-19T16:44:35.055Z,20.60
2023-05-19T16:47:01.869Z,20.60
2023-05-19T16:49:28.637Z,20.60
2023-05-19T16:51:55.845Z,20.60
2023-05-19T16:54:25.826Z,20.60
2023-05-19T16:56:54.653Z,20.50
2023-05-19T16:59:21.529Z,20.60
2023-05-19T17:01:48.388Z,20.60
2023-05-19T17:04:15.421Z,20.60
2023-05-19T17:06:42.263Z,20.60
2023-05-19T17:09:09.088Z,20.60
2023-05-19T17:11:35.948Z,20.60
2023-05-19T17:14:07.518Z,20.60
2023-05-19T17:16:35.738Z,20.60
2023-05-19T17:19:03.518Z,20.60
2023-05-19T17:21:31.852Z,20.60
2023-05-19T17:23:58.646Z,20.50
2023-05-19T17:26:25.456Z,20.60
2023-05-19T17:28:52.385Z,20.60
2023-05-19T17:31:19.084Z,20.60
2023-05-19T17:33:46.182Z,20.50
2023-05-19T17:36:13.828Z,20.50
2023-05-19T17:38:41.780Z,20.50
2023-05-19T17:41:14.068Z,20.50
2023-05-19T17:43:41.901Z,20.50
2023-05-19T17:46:09.047Z,20.60
2023-05-19T17:48:39.917Z,20.60
2023-05-19T17:51:09.690Z,20.60
2023-05-19T17:53:36.921Z,20.60
2023-05-19T17:56:06.911Z,20.60
2023-05-19T17:58:34.014Z,20.60
2023-05-19T18:01:00.938Z,20.60
2023-05-19T18:03:28.206Z,20.60
2023-05-19T18:05:55.258Z,20.60
2023-05-19T18:08:22.386Z,20.60
2023-05-19T18:10:51.668Z,20.60
2023-05-19T18:13:18.660Z,20.50
2023-05-19T18:15:45.436Z,20.60
2023-05-19T18:18:12.391Z,20.60
2023-05-19T18:20:41.097Z,20.60
2023-05-19T18:23:07.900Z,20.60
2023-05-19T18:25:35.666Z,20.50
2023-05-19T18:28:02.420Z,20.50
2023-05-19T18:30:30.259Z,20.50
2023-05-19T18:32:57.156Z,20.50
2023-05-19T18:35:24.031Z,20.50
2023-05-19T18:37:51.125Z,20.50
2023-05-19T18:40:17.936Z,20.50
2023-05-19T18:42:44.749Z,20.50
2023-05-19T18:45:11.827Z,20.60
2023-05-19T18:47:38.598Z,20.50
2023-05-19T18:50:06.965Z,20.50
2023-05-19T18:52:33.756Z,20.50
2023-05-19T18:55:01.161Z,20.50
2023-05-19T18:57:27.904Z,20.50
2023-05-19T18:59:54.684Z,20.50
2023-05-19T19:02:21.416Z,20.50
2023-05-19T19:04:48.355Z,20.50
2023-05-19T19:07:16.183Z,20.50
2023-05-19T19:09:43.833Z,20.50
2023-05-19T19:12:11.040Z,20.50
2023-05-19T19:14:38.543Z,20.50
2023-05-19T19:17:05.585Z,20.50
2023-05-19T19:19:33.016Z,20.50
2023-05-19T19:21:59.854Z,20.40
2023-05-19T19:24:28.429Z,20.50
2023-05-19T19:26:55.133Z,20.50
2023-05-19T19:29:21.982Z,20.50
2023-05-19T19:31:48.948Z,20.50
2023-05-19T19:34:15.943Z,20.40
2023-05-19T19:36:43.842Z,20.50
2023-05-19T19:39:10.766Z,20.50
2023-05-19T19:41:37.645Z,20.50
2023-05-19T21:44:50.735Z,20.50
2023-05-19T21:47:17.463Z,19.90
2023-05-19T21:49:44.329Z,19.90
2023-05-19T21:52:11.120Z,19.90
2023-05-19T21:54:37.950Z,19.90
2023-05-19T21:57:04.941Z,19.80
2023-05-19T21:59:31.683Z,19.80
2023-05-19T22:01:58.808Z,19.80
2023-05-19T22:04:25.665Z,19.70
2023-05-19T22:06:52.454Z,19.70
2023-05-19T22:09:19.173Z,19.70
2023-05-19T22:11:46.294Z,19.70
2023-05-19T22:14:14.331Z,19.70
2023-05-19T22:16:41.069Z,19.70
2023-05-19T22:19:08.141Z,19.70
2023-05-19T22:21:35.013Z,19.70
2023-05-19T22:24:01.832Z,19.60
2023-05-19T22:26:28.762Z,19.60
2023-05-19T22:28:55.739Z,19.60
2023-05-19T22:31:22.508Z,19.50
2023-05-19T22:33:50.298Z,19.50
2023-05-19T22:36:17.093Z,19.60
2023-05-19T22:38:43.818Z,19.50
2023-05-19T22:41:10.641Z,19.50
2023-05-19T22:43:37.436Z,19.50
2023-05-19T22:46:04.425Z,19.50
2023-05-19T22:48:31.637Z,19.50
2023-05-19T22:50:58.466Z,19.50
2023-05-19T22:53:25.196Z,19.40
2023-05-19T22:55:51.890Z,19.40
2023-05-19T22:58:18.948Z,19.40
2023-05-19T23:00:45.607Z,19.40
2023-05-19T23:03:13.528Z,19.40
2023-05-19T23:05:40.575Z,19.30
2023-05-19T23:08:07.300Z,19.30
2023-05-19T23:10:34.023Z,19.30
2023-05-19T23:13:00.804Z,19.30
2023-05-19T23:15:27.496Z,19.30
2023-05-19T23:17:54.255Z,19.30
2023-05-19T23:20:21.224Z,19.30
2023-05-19T23:22:47.931Z,19.30
2023-05-19T23:25:14.706Z,19.30
2023-05-19T23:27:42.501Z,19.30
2023-05-19T23:30:09.545Z,19.20
2023-05-19T23:32:36.420Z,19.20
2023-05-19T23:35:13.813Z,19.20
2023-05-19T23:37:40.809Z,19.20
2023-05-19T23:40:08.615Z,19.20
2023-05-19T23:42:35.638Z,19.10
2023-05-19T23:45:02.822Z,19.10
2023-05-19T23:47:29.762Z,19.10
2023-05-19T23:49:56.551Z,19.10
2023-05-19T23:52:23.283Z,19.10
2023-05-19T23:54:50.271Z,19.00
2023-05-19T23:57:17.076Z,19.10
2023-05-19T23:59:43.841Z,19.00
